Pagrindinis puslapis
METAR-TAF:

METAR-TAF

Oro uostai :

Bamakas, Malis

platuma: 12-32N, ilguma: 007-57W, Aukštis: 380 m

Dabartinis oras

Ataskaita buvo paskelbta 42 minutes, ne 07:30 UTC
Vėjas 2 kt nuo kintamojo kryptimis
Temperatūra 15°C
Drėgmė 59%
Slėgis 1016 hPa
Matomumas: 8000 m

METAR: GABS 140730Z VRB02KT 8000 NSC 15/07 Q1016 NOSIG

Laikas: 08:12 (08:12 UTC)

Prognozė

Ataskaita buvo paskelbta 3 valandos ir 12 minutes, ne 05:00 UTC
Prognozė galioja nuo 14 metu 06 UTC su 15 metu 12 UTC
Vėjas 8 kt iš Rytų/Šiaurės Rytų su gūsio iki 18 kt
Matomumas: 8000 m

TAF: GABS 140500Z 1406/1512 06008G18KT 8000 NSC

Orai ataskaitas ir orų prognozės (METAR, TAF).

turimą stotys yra geltonos ir raudonos taškus žemėlapyje.

Perkelti pele per norėdami pamatyti stoties vardą.

Tada spustelėkite, norėdami matyti oro stebėjimo ir prognozės.

Norėdami pakeisti žemėlapį: spustelėkite ant žalios mygtukų su juodo kryžiaus žemyn,; žalią mygtuką su brūkšneliu, jei norite nutolinti; arba žalių rodyklių gretimoms žemėlapius.


METAR-TAF: